sensor_id;sensor_type;location;lat;lon;timestamp;pressure;altitude;pressure_sealevel;temperature;humidity
10518;BME280;5307;42.548;22.968;2023-03-24T00:08:57;93963.31;;;4.40;100.00
10518;BME280;5307;42.548;22.968;2023-03-24T00:11:25;93971.72;;;4.15;100.00
10518;BME280;5307;42.548;22.968;2023-03-24T00:13:52;93959.56;;;4.30;100.00
10518;BME280;5307;42.548;22.968;2023-03-24T00:16:18;93971.75;;;4.11;100.00
10518;BME280;5307;42.548;22.968;2023-03-24T00:18:46;93961.50;;;4.30;100.00
10518;BME280;5307;42.548;22.968;2023-03-24T00:21:17;93956.81;;;4.34;100.00
10518;BME280;5307;42.548;22.968;2023-03-24T00:23:46;93961.91;;;4.28;100.00
10518;BME280;5307;42.548;22.968;2023-03-24T00:26:15;93961.16;;;4.28;100.00
10518;BME280;5307;42.548;22.968;2023-03-24T00:28:44;93961.88;;;4.32;100.00
10518;BME280;5307;42.548;22.968;2023-03-24T00:31:11;93957.44;;;4.14;100.00
10518;BME280;5307;42.548;22.968;2023-03-24T00:33:41;93963.44;;;4.29;100.00
10518;BME280;5307;42.548;22.968;2023-03-24T00:36:10;93955.81;;;4.21;100.00
10518;BME280;5307;42.548;22.968;2023-03-24T00:38:38;93954.38;;;4.12;100.00
10518;BME280;5307;42.548;22.968;2023-03-24T00:41:06;93960.50;;;4.16;100.00
10518;BME280;5307;42.548;22.968;2023-03-24T00:43:36;93953.56;;;4.15;100.00
10518;BME280;5307;42.548;22.968;2023-03-24T00:46:05;93946.97;;;4.16;100.00
10518;BME280;5307;42.548;22.968;2023-03-24T00:48:33;93955.13;;;3.75;100.00
10518;BME280;5307;42.548;22.968;2023-03-24T00:51:03;93946.34;;;3.68;100.00
10518;BME280;5307;42.548;22.968;2023-03-24T00:53:32;93939.19;;;3.88;100.00
10518;BME280;5307;42.548;22.968;2023-03-24T00:55:59;93945.69;;;3.94;100.00
10518;BME280;5307;42.548;22.968;2023-03-24T00:58:26;93944.53;;;3.95;100.00
10518;BME280;5307;42.548;22.968;2023-03-24T01:00:56;93943.78;;;3.91;100.00
10518;BME280;5307;42.548;22.968;2023-03-24T01:03:24;93941.34;;;4.04;100.00
10518;BME280;5307;42.548;22.968;2023-03-24T01:05:52;93938.38;;;3.95;100.00
10518;BME280;5307;42.548;22.968;2023-03-24T01:08:23;93940.41;;;3.80;100.00
10518;BME280;5307;42.548;22.968;2023-03-24T01:10:51;93942.34;;;3.83;100.00
10518;BME280;5307;42.548;22.968;2023-03-24T01:13:19;93945.59;;;3.64;100.00
10518;BME280;5307;42.548;22.968;2023-03-24T01:15:47;93940.09;;;3.74;100.00
10518;BME280;5307;42.548;22.968;2023-03-24T01:18:16;93948.00;;;3.96;100.00
10518;BME280;5307;42.548;22.968;2023-03-24T01:20:44;93946.94;;;3.86;100.00
10518;BME280;5307;42.548;22.968;2023-03-24T01:23:15;93941.72;;;3.68;100.00
10518;BME280;5307;42.548;22.968;2023-03-24T01:25:43;93935.69;;;3.53;100.00
10518;BME280;5307;42.548;22.968;2023-03-24T01:28:13;93933.13;;;3.77;100.00
10518;BME280;5307;42.548;22.968;2023-03-24T01:30:41;93930.72;;;3.86;100.00
10518;BME280;5307;42.548;22.968;2023-03-24T01:33:08;93925.59;;;3.57;100.00
10518;BME280;5307;42.548;22.968;2023-03-24T01:35:37;93935.84;;;3.32;100.00
10518;BME280;5307;42.548;22.968;2023-03-24T01:38:05;93934.28;;;3.76;100.00
10518;BME280;5307;42.548;22.968;2023-03-24T01:40:34;93930.72;;;3.86;100.00
10518;BME280;5307;42.548;22.968;2023-03-24T01:43:02;93936.50;;;3.88;100.00
10518;BME280;5307;42.548;22.968;2023-03-24T01:45:57;93934.44;;;3.99;100.00
10518;BME280;5307;42.548;22.968;2023-03-24T01:48:26;93933.41;;;3.86;100.00
10518;BME280;5307;42.548;22.968;2023-03-24T01:50:59;93933.34;;;3.55;100.00
10518;BME280;5307;42.548;22.968;2023-03-24T01:53:27;93940.63;;;3.58;100.00
10518;BME280;5307;42.548;22.968;2023-03-24T01:55:55;93939.69;;;3.76;100.00
10518;BME280;5307;42.548;22.968;2023-03-24T01:58:23;93947.88;;;3.69;100.00
10518;BME280;5307;42.548;22.968;2023-03-24T02:00:52;93939.09;;;3.57;100.00
10518;BME280;5307;42.548;22.968;2023-03-24T02:03:22;93943.09;;;3.42;100.00
10518;BME280;5307;42.548;22.968;2023-03-24T02:05:51;93954.13;;;3.58;100.00
10518;BME280;5307;42.548;22.968;2023-03-24T02:08:23;93950.72;;;3.51;100.00
10518;BME280;5307;42.548;22.968;2023-03-24T02:10:53;93956.50;;;3.53;100.00
10518;BME280;5307;42.548;22.968;2023-03-24T02:13:21;93943.47;;;3.44;100.00
10518;BME280;5307;42.548;22.968;2023-03-24T02:15:58;93951.25;;;3.39;100.00
10518;BME280;5307;42.548;22.968;2023-03-24T02:18:34;93957.25;;;3.57;100.00
10518;BME280;5307;42.548;22.968;2023-03-24T02:21:37;93946.09;;;3.51;100.00
10518;BME280;5307;42.548;22.968;2023-03-24T02:24:28;93939.00;;;3.27;100.00
10518;BME280;5307;42.548;22.968;2023-03-24T02:27:07;93935.50;;;3.30;100.00
10518;BME280;5307;42.548;22.968;2023-03-24T02:30:14;93941.25;;;3.32;100.00
10518;BME280;5307;42.548;22.968;2023-03-24T02:36:23;93946.72;;;3.25;100.00
10518;BME280;5307;42.548;22.968;2023-03-24T02:39:34;93942.09;;;3.25;100.00
10518;BME280;5307;42.548;22.968;2023-03-24T02:42:08;93944.03;;;3.21;100.00
10518;BME280;5307;42.548;22.968;2023-03-24T02:44:43;93937.47;;;3.26;100.00
10518;BME280;5307;42.548;22.968;2023-03-24T02:47:18;93937.34;;;3.40;100.00
10518;BME280;5307;42.548;22.968;2023-03-24T02:49:52;93940.41;;;3.42;100.00
10518;BME280;5307;42.548;22.968;2023-03-24T02:52:26;93943.38;;;3.51;100.00
10518;BME280;5307;42.548;22.968;2023-03-24T02:55:01;93934.88;;;3.56;100.00
10518;BME280;5307;42.548;22.968;2023-03-24T02:57:32;93939.09;;;3.57;100.00
10518;BME280;5307;42.548;22.968;2023-03-24T03:00:03;93929.00;;;3.65;100.00
10518;BME280;5307;42.548;22.968;2023-03-24T03:02:36;93931.69;;;3.65;100.00
10518;BME280;5307;42.548;22.968;2023-03-24T03:05:08;93923.50;;;3.76;100.00
10518;BME280;5307;42.548;22.968;2023-03-24T03:07:39;93927.72;;;3.77;100.00
10518;BME280;5307;42.548;22.968;2023-03-24T03:10:13;93922.03;;;3.68;100.00
10518;BME280;5307;42.548;22.968;2023-03-24T03:12:42;93911.25;;;3.68;100.00
10518;BME280;5307;42.548;22.968;2023-03-24T03:15:13;93913.94;;;3.68;100.00
10518;BME280;5307;42.548;22.968;2023-03-24T03:17:46;93903.88;;;3.72;100.00
10518;BME280;5307;42.548;22.968;2023-03-24T03:20:17;93918.03;;;3.83;100.00
10518;BME280;5307;42.548;22.968;2023-03-24T03:22:49;93912.41;;;3.67;100.00
10518;BME280;5307;42.548;22.968;2023-03-24T03:25:21;93915.56;;;3.58;100.00
10518;BME280;5307;42.548;22.968;2023-03-24T03:27:52;93924.06;;;3.56;100.00
10518;BME280;5307;42.548;22.968;2023-03-24T03:30:23;93914.44;;;3.55;100.00
10518;BME280;5307;42.548;22.968;2023-03-24T03:32:54;93918.03;;;3.42;100.00
10518;BME280;5307;42.548;22.968;2023-03-24T03:35:25;93913.00;;;3.44;100.00
10518;BME280;5307;42.548;22.968;2023-03-24T03:37:57;93907.00;;;3.67;100.00
10518;BME280;5307;42.548;22.968;2023-03-24T03:40:34;93911.41;;;3.50;100.00
10518;BME280;5307;42.548;22.968;2023-03-24T03:43:04;93905.69;;;3.44;100.00
10518;BME280;5307;42.548;22.968;2023-03-24T03:45:32;93922.84;;;3.20;100.00
10518;BME280;5307;42.548;22.968;2023-03-24T03:47:59;93927.34;;;3.34;100.00
10518;BME280;5307;42.548;22.968;2023-03-24T03:50:26;93918.78;;;3.46;100.00
10518;BME280;5307;42.548;22.968;2023-03-24T03:52:53;93913.53;;;3.69;100.00
10518;BME280;5307;42.548;22.968;2023-03-24T03:55:20;93923.34;;;3.52;100.00
10518;BME280;5307;42.548;22.968;2023-03-24T03:57:48;93925.78;;;3.36;100.00
10518;BME280;5307;42.548;22.968;2023-03-24T04:00:17;93921.28;;;3.22;100.00
10518;BME280;5307;42.548;22.968;2023-03-24T04:03:10;93919.75;;;3.25;100.00
10518;BME280;5307;42.548;22.968;2023-03-24T04:05:46;93925.78;;;3.40;100.00
10518;BME280;5307;42.548;22.968;2023-03-24T04:08:27;93924.25;;;3.35;100.00
10518;BME280;5307;42.548;22.968;2023-03-24T04:11:25;93926.66;;;3.26;100.00
10518;BME280;5307;42.548;22.968;2023-03-24T04:14:17;93928.94;;;3.31;100.00
10518;BME280;5307;42.548;22.968;2023-03-24T04:16:53;93935.47;;;3.34;100.00
10518;BME280;5307;42.548;22.968;2023-03-24T04:19:42;93932.91;;;3.16;100.00
10518;BME280;5307;42.548;22.968;2023-03-24T04:22:24;93938.31;;;3.16;100.00
10518;BME280;5307;42.548;22.968;2023-03-24T04:24:56;93939.81;;;3.20;100.00
10518;BME280;5307;42.548;22.968;2023-03-24T04:27:30;93936.75;;;3.18;100.00
10518;BME280;5307;42.548;22.968;2023-03-24T04:30:11;93941.06;;;3.05;100.00
10518;BME280;5307;42.548;22.968;2023-03-24T04:32:44;93939.94;;;3.03;100.00
10518;BME280;5307;42.548;22.968;2023-03-24T04:35:18;93940.66;;;3.10;100.00
10518;BME280;5307;42.548;22.968;2023-03-24T04:37:51;93933.34;;;3.11;100.00
10518;BME280;5307;42.548;22.968;2023-03-24T04:40:20;93930.66;;;3.11;100.00
10518;BME280;5307;42.548;22.968;2023-03-24T04:42:50;93936.09;;;3.04;100.00
10518;BME280;5307;42.548;22.968;2023-03-24T04:45:19;93931.81;;;3.06;100.00
10518;BME280;5307;42.548;22.968;2023-03-24T04:47:52;93940.31;;;3.05;100.00
10518;BME280;5307;42.548;22.968;2023-03-24T04:50:32;93935.25;;;3.14;100.00
10518;BME280;5307;42.548;22.968;2023-03-24T04:53:01;93937.63;;;3.05;100.00
10518;BME280;5307;42.548;22.968;2023-03-24T04:55:39;93949.13;;;3.09;100.00
10518;BME280;5307;42.548;22.968;2023-03-24T04:58:10;93951.06;;;3.08;100.00
10518;BME280;5307;42.548;22.968;2023-03-24T05:00:38;93949.13;;;3.12;100.00
10518;BME280;5307;42.548;22.968;2023-03-24T05:03:06;93953.41;;;3.10;100.00
10518;BME280;5307;42.548;22.968;2023-03-24T05:05:32;93954.94;;;3.07;100.00
10518;BME280;5307;42.548;22.968;2023-03-24T05:07:59;93952.59;;;3.13;100.00
10518;BME280;5307;42.548;22.968;2023-03-24T05:10:26;93957.19;;;3.16;100.00
10518;BME280;5307;42.548;22.968;2023-03-24T05:12:53;93962.91;;;3.21;100.00
10518;BME280;5307;42.548;22.968;2023-03-24T05:15:20;93971.34;;;3.31;100.00
10518;BME280;5307;42.548;22.968;2023-03-24T05:17:48;93969.84;;;3.26;100.00
10518;BME280;5307;42.548;22.968;2023-03-24T05:20:16;93981.84;;;3.18;100.00
10518;BME280;5307;42.548;22.968;2023-03-24T05:22:43;93973.72;;;3.25;100.00
10518;BME280;5307;42.548;22.968;2023-03-24T05:25:10;93973.31;;;3.26;100.00
10518;BME280;5307;42.548;22.968;2023-03-24T05:27:37;93980.19;;;3.31;100.00
10518;BME280;5307;42.548;22.968;2023-03-24T05:30:05;93976.25;;;3.43;100.00
10518;BME280;5307;42.548;22.968;2023-03-24T05:32:33;93981.88;;;3.63;100.00
10518;BME280;5307;42.548;22.968;2023-03-24T05:35:02;93966.78;;;3.69;100.00
10518;BME280;5307;42.548;22.968;2023-03-24T05:37:29;93964.31;;;3.85;100.00
10518;BME280;5307;42.548;22.968;2023-03-24T05:39:56;93975.41;;;3.94;100.00
10518;BME280;5307;42.548;22.968;2023-03-24T05:42:23;93970.69;;;4.02;100.00
10518;BME280;5307;42.548;22.968;2023-03-24T05:44:50;93973.44;;;4.32;100.00
10518;BME280;5307;42.548;22.968;2023-03-24T05:47:17;93975.56;;;4.48;100.00
10518;BME280;5307;42.548;22.968;2023-03-24T05:49:44;93979.44;;;4.47;100.00
10518;BME280;5307;42.548;22.968;2023-03-24T05:52:13;93976.31;;;4.83;100.00
10518;BME280;5307;42.548;22.968;2023-03-24T05:54:41;93969.41;;;5.05;100.00
10518;BME280;5307;42.548;22.968;2023-03-24T05:57:11;93970.16;;;5.09;100.00
10518;BME280;5307;42.548;22.968;2023-03-24T05:59:38;93979.03;;;5.36;100.00
10518;BME280;5307;42.548;22.968;2023-03-24T06:02:06;93971.84;;;5.50;100.00
10518;BME280;5307;42.548;22.968;2023-03-24T06:04:33;93966.16;;;6.11;100.00
10518;BME280;5307;42.548;22.968;2023-03-24T06:07:00;93956.16;;;6.08;100.00
10518;BME280;5307;42.548;22.968;2023-03-24T06:09:30;93955.31;;;6.70;100.00
10518;BME280;5307;42.548;22.968;2023-03-24T06:12:00;93956.03;;;6.15;100.00
10518;BME280;5307;42.548;22.968;2023-03-24T06:14:26;93953.94;;;6.22;100.00
10518;BME280;5307;42.548;22.968;2023-03-24T06:16:53;93959.06;;;7.29;99.30
10518;BME280;5307;42.548;22.968;2023-03-24T06:19:24;93959.53;;;6.91;95.90
10518;BME280;5307;42.548;22.968;2023-03-24T06:21:51;93952.91;;;7.61;94.83
10518;BME280;5307;42.548;22.968;2023-03-24T06:24:19;93938.47;;;8.09;92.51
10518;BME280;5307;42.548;22.968;2023-03-24T06:26:47;93954.41;;;7.78;92.20
10518;BME280;5307;42.548;22.968;2023-03-24T06:29:14;93953.56;;;7.81;91.66
10518;BME280;5307;42.548;22.968;2023-03-24T06:31:42;93960.09;;;7.84;92.19
10518;BME280;5307;42.548;22.968;2023-03-24T06:34:09;93954.69;;;7.51;91.71
10518;BME280;5307;42.548;22.968;2023-03-24T06:36:36;93955.16;;;7.95;92.26
10518;BME280;5307;42.548;22.968;2023-03-24T06:39:03;93960.59;;;7.95;91.48
10518;BME280;5307;42.548;22.968;2023-03-24T06:41:31;93959.75;;;8.27;89.24
10518;BME280;5307;42.548;22.968;2023-03-24T06:44:00;93960.28;;;8.22;88.08
10518;BME280;5307;42.548;22.968;2023-03-24T06:46:26;93961.59;;;8.17;88.45
10518;BME280;5307;42.548;22.968;2023-03-24T06:48:53;93961.06;;;9.06;85.61
10518;BME280;5307;42.548;22.968;2023-03-24T06:51:20;93962.63;;;8.65;85.74
10518;BME280;5307;42.548;22.968;2023-03-24T06:53:47;93955.94;;;9.08;82.76
10518;BME280;5307;42.548;22.968;2023-03-24T06:56:14;93954.00;;;9.21;82.52
10518;BME280;5307;42.548;22.968;2023-03-24T06:58:42;93950.34;;;8.86;84.02
10518;BME280;5307;42.548;22.968;2023-03-24T07:01:11;93955.03;;;8.73;84.53
10518;BME280;5307;42.548;22.968;2023-03-24T07:03:39;93954.88;;;9.18;84.28
10518;BME280;5307;42.548;22.968;2023-03-24T07:06:08;93952.81;;;9.35;84.77
10518;BME280;5307;42.548;22.968;2023-03-24T07:08:35;93968.13;;;8.90;86.10
10518;BME280;5307;42.548;22.968;2023-03-24T07:11:02;93963.56;;;9.76;83.74
10518;BME280;5307;42.548;22.968;2023-03-24T07:13:33;93954.25;;;10.78;78.79
10518;BME280;5307;42.548;22.968;2023-03-24T07:16:00;93957.06;;;10.43;78.22
10518;BME280;5307;42.548;22.968;2023-03-24T07:18:28;93950.31;;;10.35;76.46
10518;BME280;5307;42.548;22.968;2023-03-24T07:20:55;93965.59;;;9.85;79.30
10518;BME280;5307;42.548;22.968;2023-03-24T07:23:22;93947.00;;;10.84;78.91
10518;BME280;5307;42.548;22.968;2023-03-24T07:25:49;93960.59;;;10.31;79.71
10518;BME280;5307;42.548;22.968;2023-03-24T07:28:17;93955.84;;;10.88;79.07
10518;BME280;5307;42.548;22.968;2023-03-24T07:30:44;93959.78;;;10.87;78.28
10518;BME280;5307;42.548;22.968;2023-03-24T07:33:11;93965.69;;;11.47;78.29
10518;BME280;5307;42.548;22.968;2023-03-24T07:35:39;93962.63;;;11.05;77.09
10518;BME280;5307;42.548;22.968;2023-03-24T07:38:07;93955.78;;;11.32;77.47
10518;BME280;5307;42.548;22.968;2023-03-24T07:40:34;93958.75;;;11.55;76.39
10518;BME280;5307;42.548;22.968;2023-03-24T07:43:02;93967.91;;;11.30;76.02
10518;BME280;5307;42.548;22.968;2023-03-24T07:45:30;93962.47;;;11.09;75.88
10518;BME280;5307;42.548;22.968;2023-03-24T07:47:56;93961.91;;;11.85;73.42
10518;BME280;5307;42.548;22.968;2023-03-24T07:50:26;93957.28;;;11.73;75.20
10518;BME280;5307;42.548;22.968;2023-03-24T07:52:55;93959.00;;;11.79;74.09
10518;BME280;5307;42.548;22.968;2023-03-24T07:55:22;93956.50;;;12.67;72.97
10518;BME280;5307;42.548;22.968;2023-03-24T07:57:49;93954.19;;;12.75;70.87
10518;BME280;5307;42.548;22.968;2023-03-24T08:00:17;93944.38;;;13.20;70.44
10518;BME280;5307;42.548;22.968;2023-03-24T08:02:48;93938.34;;;12.88;70.20
10518;BME280;5307;42.548;22.968;2023-03-24T08:05:16;93941.53;;;13.47;69.49
10518;BME280;5307;42.548;22.968;2023-03-24T08:07:45;93927.06;;;14.27;65.70
10518;BME280;5307;42.548;22.968;2023-03-24T08:10:20;93927.53;;;13.45;64.71
10518;BME280;5307;42.548;22.968;2023-03-24T08:12:48;93926.53;;;14.14;64.42
10518;BME280;5307;42.548;22.968;2023-03-24T08:15:15;93920.72;;;13.31;64.64
10518;BME280;5307;42.548;22.968;2023-03-24T08:17:42;93923.44;;;13.74;62.99
10518;BME280;5307;42.548;22.968;2023-03-24T08:20:10;93924.94;;;13.75;64.03
10518;BME280;5307;42.548;22.968;2023-03-24T08:22:39;93919.28;;;14.26;62.42
10518;BME280;5307;42.548;22.968;2023-03-24T08:25:06;93915.47;;;14.47;58.95
10518;BME280;5307;42.548;22.968;2023-03-24T08:27:35;93914.56;;;14.03;59.83
10518;BME280;5307;42.548;22.968;2023-03-24T08:30:03;93913.53;;;14.24;61.64
10518;BME280;5307;42.548;22.968;2023-03-24T08:32:31;93904.34;;;13.79;58.53
10518;BME280;5307;42.548;22.968;2023-03-24T08:34:58;93903.38;;;14.54;59.85
10518;BME280;5307;42.548;22.968;2023-03-24T08:37:25;93910.88;;;14.53;58.12
10518;BME280;5307;42.548;22.968;2023-03-24T08:39:52;93889.19;;;14.70;58.57
10518;BME280;5307;42.548;22.968;2023-03-24T08:42:23;93900.47;;;14.87;58.15
10518;BME280;5307;42.548;22.968;2023-03-24T08:45:00;93894.84;;;15.40;57.50
10518;BME280;5307;42.548;22.968;2023-03-24T08:47:27;93894.31;;;15.07;56.17
10518;BME280;5307;42.548;22.968;2023-03-24T08:49:55;93897.50;;;14.91;55.13
10518;BME280;5307;42.548;22.968;2023-03-24T08:52:23;93894.31;;;15.22;56.56
10518;BME280;5307;42.548;22.968;2023-03-24T08:54:51;93888.63;;;14.81;56.44
10518;BME280;5307;42.548;22.968;2023-03-24T08:57:18;93886.41;;;15.79;55.09
10518;BME280;5307;42.548;22.968;2023-03-24T08:59:46;93887.34;;;15.76;54.84
10518;BME280;5307;42.548;22.968;2023-03-24T09:02:14;93886.19;;;15.33;55.32
10518;BME280;5307;42.548;22.968;2023-03-24T09:04:41;93881.56;;;15.74;54.61
10518;BME280;5307;42.548;22.968;2023-03-24T09:07:10;93874.97;;;15.86;55.13
10518;BME280;5307;42.548;22.968;2023-03-24T09:09:37;93874.38;;;16.63;54.43
10518;BME280;5307;42.548;22.968;2023-03-24T09:15:31;93874.38;;;15.77;55.56
10518;BME280;5307;42.548;22.968;2023-03-24T09:17:59;93862.31;;;16.35;55.01
10518;BME280;5307;42.548;22.968;2023-03-24T09:20:27;93865.94;;;16.67;57.27
10518;BME280;5307;42.548;22.968;2023-03-24T09:23:19;93864.19;;;15.83;55.89
10518;BME280;5307;42.548;22.968;2023-03-24T09:25:47;93855.88;;;16.44;52.88
10518;BME280;5307;42.548;22.968;2023-03-24T09:28:14;93862.34;;;16.41;52.67
10518;BME280;5307;42.548;22.968;2023-03-24T09:31:03;93853.81;;;16.85;53.40
10518;BME280;5307;42.548;22.968;2023-03-24T09:33:32;93850.03;;;16.16;53.65
10518;BME280;5307;42.548;22.968;2023-03-24T09:36:00;93843.69;;;16.50;53.52
10518;BME280;5307;42.548;22.968;2023-03-24T09:38:28;93854.75;;;16.10;52.02
10518;BME280;5307;42.548;22.968;2023-03-24T09:40:58;93848.34;;;16.44;51.42
10518;BME280;5307;42.548;22.968;2023-03-24T09:43:32;93847.09;;;16.66;52.44
10518;BME280;5307;42.548;22.968;2023-03-24T09:46:00;93840.97;;;17.08;54.12
10518;BME280;5307;42.548;22.968;2023-03-24T09:48:37;93836.81;;;16.92;51.18
10518;BME280;5307;42.548;22.968;2023-03-24T09:51:08;93831.00;;;17.96;50.78
10518;BME280;5307;42.548;22.968;2023-03-24T09:53:42;93836.44;;;17.42;51.04
10518;BME280;5307;42.548;22.968;2023-03-24T09:56:24;93832.44;;;16.80;49.95
10518;BME280;5307;42.548;22.968;2023-03-24T09:59:01;93826.63;;;17.41;50.35
10518;BME280;5307;42.548;22.968;2023-03-24T10:01:35;93821.69;;;17.50;50.15
10518;BME280;5307;42.548;22.968;2023-03-24T10:04:04;93812.88;;;17.09;48.39
10518;BME280;5307;42.548;22.968;2023-03-24T10:06:33;93808.06;;;17.41;48.85
10518;BME280;5307;42.548;22.968;2023-03-24T10:09:19;93804.44;;;17.61;48.19
10518;BME280;5307;42.548;22.968;2023-03-24T10:11:56;93799.56;;;17.88;48.18
10518;BME280;5307;42.548;22.968;2023-03-24T10:14:37;93797.06;;;17.95;47.73
10518;BME280;5307;42.548;22.968;2023-03-24T10:17:16;93795.25;;;18.63;47.60
10518;BME280;5307;42.548;22.968;2023-03-24T10:19:54;93785.56;;;17.54;46.16
10518;BME280;5307;42.548;22.968;2023-03-24T10:22:29;93787.94;;;17.72;46.21
10518;BME280;5307;42.548;22.968;2023-03-24T10:25:02;93782.47;;;17.84;47.35
10518;BME280;5307;42.548;22.968;2023-03-24T10:27:35;93786.84;;;18.13;47.69
10518;BME280;5307;42.548;22.968;2023-03-24T10:30:13;93777.88;;;18.57;47.13
10518;BME280;5307;42.548;22.968;2023-03-24T10:32:41;93779.22;;;17.42;46.15
10518;BME280;5307;42.548;22.968;2023-03-24T10:35:16;93768.00;;;17.57;45.38
10518;BME280;5307;42.548;22.968;2023-03-24T10:37:44;93775.28;;;18.08;47.12
10518;BME280;5307;42.548;22.968;2023-03-24T10:40:13;93767.47;;;18.13;45.82
10518;BME280;5307;42.548;22.968;2023-03-24T10:42:44;93768.34;;;17.70;44.34
10518;BME280;5307;42.548;22.968;2023-03-24T10:45:13;93768.31;;;18.41;44.81
10518;BME280;5307;42.548;22.968;2023-03-24T10:47:46;93765.47;;;18.13;43.76
10518;BME280;5307;42.548;22.968;2023-03-24T10:50:16;93762.72;;;18.13;41.14
10518;BME280;5307;42.548;22.968;2023-03-24T10:52:45;93762.84;;;18.69;41.31
10518;BME280;5307;42.548;22.968;2023-03-24T10:55:14;93765.78;;;18.43;45.50
10518;BME280;5307;42.548;22.968;2023-03-24T10:57:44;93755.50;;;18.49;45.75
10518;BME280;5307;42.548;22.968;2023-03-24T11:00:17;93747.13;;;18.16;44.07
10518;BME280;5307;42.548;22.968;2023-03-24T11:02:54;93741.63;;;18.21;44.30
10518;BME280;5307;42.548;22.968;2023-03-24T11:05:27;93747.22;;;18.72;42.97
10518;BME280;5307;42.548;22.968;2023-03-24T11:07:58;93744.44;;;18.55;
10518;BME280;5307;42.548;22.968;2023-03-24T11:10:33;93741.47;;;18.64;43.17
10518;BME280;5307;42.548;22.968;2023-03-24T11:13:01;93739.72;;;18.78;42.63
10518;BME280;5307;42.548;22.968;2023-03-24T11:15:30;93737.91;;;18.58;39.91
10518;BME280;5307;42.548;22.968;2023-03-24T11:17:59;93731.09;;;18.31;40.07
10518;BME280;5307;42.548;22.968;2023-03-24T11:20:30;93719.03;;;18.17;39.71
10518;BME280;5307;42.548;22.968;2023-03-24T11:23:00;93721.69;;;17.84;37.90
10518;BME280;5307;42.548;22.968;2023-03-24T11:25:29;93718.97;;;18.06;37.25
10518;BME280;5307;42.548;22.968;2023-03-24T11:27:59;93713.75;;;18.19;37.83
10518;BME280;5307;42.548;22.968;2023-03-24T11:30:31;93706.72;;;18.35;37.94
10518;BME280;5307;42.548;22.968;2023-03-24T11:32:59;93703.19;;;18.57;38.48
10518;BME280;5307;42.548;22.968;2023-03-24T11:35:30;93704.72;;;18.35;36.93
10518;BME280;5307;42.548;22.968;2023-03-24T11:38:02;93700.19;;;18.44;37.50
10518;BME280;5307;42.548;22.968;2023-03-24T11:40:30;93697.16;;;18.25;34.36
10518;BME280;5307;42.548;22.968;2023-03-24T11:42:58;93691.91;;;18.66;38.53
10518;BME280;5307;42.548;22.968;2023-03-24T11:45:28;93690.84;;;18.02;35.18
10518;BME280;5307;42.548;22.968;2023-03-24T11:48:01;93691.16;;;18.49;38.15
10518;BME280;5307;42.548;22.968;2023-03-24T11:50:33;93685.13;;;18.78;36.60
10518;BME280;5307;42.548;22.968;2023-03-24T11:53:09;93670.78;;;18.52;35.46
10518;BME280;5307;42.548;22.968;2023-03-24T11:55:41;93680.03;;;18.15;34.45
10518;BME280;5307;42.548;22.968;2023-03-24T11:58:17;93664.47;;;18.23;36.64
10518;BME280;5307;42.548;22.968;2023-03-24T12:00:54;93652.66;;;18.23;34.41
10518;BME280;5307;42.548;22.968;2023-03-24T12:03:51;93655.19;;;18.60;34.95
10518;BME280;5307;42.548;22.968;2023-03-24T12:06:34;93650.66;;;18.29;35.78
10518;BME280;5307;42.548;22.968;2023-03-24T12:09:14;93645.88;;;18.35;37.10
10518;BME280;5307;42.548;22.968;2023-03-24T12:11:53;93656.44;;;18.25;36.47
10518;BME280;5307;42.548;22.968;2023-03-24T12:14:32;93648.16;;;18.31;36.18
10518;BME280;5307;42.548;22.968;2023-03-24T12:17:07;93645.88;;;18.18;36.54
10518;BME280;5307;42.548;22.968;2023-03-24T12:22:38;93636.84;;;18.68;36.14
10518;BME280;5307;42.548;22.968;2023-03-24T12:25:38;93634.06;;;18.68;35.59
10518;BME280;5307;42.548;22.968;2023-03-24T12:28:31;93628.78;;;18.81;36.89
10518;BME280;5307;42.548;22.968;2023-03-24T12:31:11;93617.97;;;18.78;37.28
10518;BME280;5307;42.548;22.968;2023-03-24T12:33:48;93614.38;;;18.99;38.30
10518;BME280;5307;42.548;22.968;2023-03-24T12:36:28;93619.97;;;18.88;36.51
10518;BME280;5307;42.548;22.968;2023-03-24T12:39:08;93608.66;;;18.86;37.64
10518;BME280;5307;42.548;22.968;2023-03-24T12:41:50;93612.19;;;18.70;37.12
10518;BME280;5307;42.548;22.968;2023-03-24T12:44:41;93590.31;;;18.50;37.84
10518;BME280;5307;42.548;22.968;2023-03-24T12:47:27;93589.81;;;18.74;36.78
10518;BME280;5307;42.548;22.968;2023-03-24T12:50:13;93589.84;;;18.46;35.48
10518;BME280;5307;42.548;22.968;2023-03-24T12:52:53;93593.88;;;18.45;35.53
10518;BME280;5307;42.548;22.968;2023-03-24T12:55:30;93588.81;;;18.49;35.28
10518;BME280;5307;42.548;22.968;2023-03-24T12:58:03;93585.31;;;18.31;34.59
10518;BME280;5307;42.548;22.968;2023-03-24T13:00:36;93578.75;;;18.40;34.94
10518;BME280;5307;42.548;22.968;2023-03-24T13:03:05;93579.28;;;18.44;35.75
10518;BME280;5307;42.548;22.968;2023-03-24T13:05:39;93582.78;;;18.50;35.15
10518;BME280;5307;42.548;22.968;2023-03-24T13:08:12;93565.16;;;18.53;35.77
10518;BME280;5307;42.548;22.968;2023-03-24T13:10:42;93578.75;;;18.40;34.08
10518;BME280;5307;42.548;22.968;2023-03-24T13:13:16;93570.50;;;18.23;34.33
10518;BME280;5307;42.548;22.968;2023-03-24T13:15:47;93566.22;;;18.22;35.47
10518;BME280;5307;42.548;22.968;2023-03-24T13:18:26;93562.19;;;18.29;35.57
10518;BME280;5307;42.548;22.968;2023-03-24T13:20:59;93565.22;;;18.25;35.42
10518;BME280;5307;42.548;22.968;2023-03-24T13:23:45;93553.66;;;18.16;35.15
10518;BME280;5307;42.548;22.968;2023-03-24T13:26:25;93557.19;;;18.22;34.88
10518;BME280;5307;42.548;22.968;2023-03-24T13:29:11;93553.91;;;18.12;35.74
10518;BME280;5307;42.548;22.968;2023-03-24T13:31:43;93557.69;;;18.20;35.88
10518;BME280;5307;42.548;22.968;2023-03-24T13:34:23;93560.22;;;18.18;35.83
10518;BME280;5307;42.548;22.968;2023-03-24T13:36:54;93553.69;;;18.04;35.18
10518;BME280;5307;42.548;22.968;2023-03-24T13:39:24;93548.63;;;18.14;35.61
10518;BME280;5307;42.548;22.968;2023-03-24T13:41:55;93540.59;;;18.22;34.63